Time;durP1;ratioP1;P1;durP2;ratioP2;P2;SDS_P1;SDS_P2;PMS_P1;PMS_P2;Temp;Humidity;BMP_temperature;BMP_pressure;BME280_temperature;BME280_humidity;BME280_pressure;Samples;Min_cycle;Max_cycle;Signal;HPM_P1;HPM_P2
2023/08/17 00:02:10;;;;;;;;;;;;;;;18.94;100.00;101948.44;5006625;28;20005;-76
2023/08/17 00:04:35;;;;;;;;;;;;;;;18.94;100.00;101943.00;5012610;28;19967;-79
2023/08/17 00:07:00;;;;;;;;;;;;;;;18.84;100.00;101948.47;5014780;28;19925;-77
2023/08/17 00:09:26;;;;;;;;;;;;;;;18.86;100.00;101949.19;5011692;28;20313;-79
2023/08/17 00:11:51;;;;;;;;;;;;;;;18.91;100.00;101948.75;5015185;28;20355;-80
2023/08/17 00:14:16;;;;;;;;;;;;;;;18.74;100.00;101948.50;5019035;28;19929;-75
2023/08/17 00:16:41;;;;;;;;;;;;;;;18.69;100.00;101947.22;5019154;28;19921;-78
2023/08/17 00:19:07;;;;;;;;;;;;;;;18.55;100.00;101952.13;5010865;28;20145;-79
2023/08/17 00:21:32;;;;;;;;;;;;;;;18.56;100.00;101951.09;5012840;28;20044;-77
2023/08/17 00:23:57;;;;;;;;;;;;;;;18.49;100.00;101949.97;5010223;28;20433;-78
2023/08/17 00:26:23;;;;;;;;;;;;;;;18.37;100.00;101945.69;5009339;28;19968;-76
2023/08/17 00:28:48;;;;;;;;;;;;;;;18.44;100.00;101944.97;5012310;28;20052;-77
2023/08/17 00:31:13;;;;;;;;;;;;;;;18.44;100.00;101933.22;5011849;28;19928;-76
2023/08/17 00:33:38;;;;;;;;;;;;;;;18.44;100.00;101935.94;5029011;28;19971;-75
2023/08/17 00:36:04;;;;;;;;;;;;;;;18.36;100.00;101935.81;5013357;28;20039;-78
2023/08/17 00:38:29;;;;;;;;;;;;;;;18.28;100.00;101933.81;5015061;28;20028;-76
2023/08/17 00:40:55;;;;;;;;;;;;;;;18.29;100.00;101932.81;5012749;28;20495;-77
2023/08/17 00:43:20;;;;;;;;;;;;;;;18.31;100.00;101936.25;5014307;28;20418;-78
2023/08/17 00:45:45;;;;;;;;;;;;;;;18.33;100.00;101930.69;5013056;28;19940;-73
2023/08/17 00:48:11;;;;;;;;;;;;;;;18.35;100.00;101928.66;5018937;28;19929;-76
2023/08/17 00:50:36;;;;;;;;;;;;;;;18.33;100.00;101925.25;5014525;28;19925;-77
2023/08/17 00:53:01;;;;;;;;;;;;;;;18.22;100.00;101921.66;5018613;28;19931;-77
2023/08/17 00:55:27;;;;;;;;;;;;;;;18.26;100.00;101933.13;5007496;28;20532;-75
2023/08/17 00:57:53;;;;;;;;;;;;;;;18.19;100.00;101930.09;5009816;28;20450;-79
2023/08/17 01:00:18;;;;;;;;;;;;;;;18.26;100.00;101923.09;4991091;28;19917;-78
2023/08/17 01:02:43;;;;;;;;;;;;;;;18.17;100.00;101910.34;5002045;28;19968;-77
2023/08/17 01:05:08;;;;;;;;;;;;;;;18.25;100.00;101925.97;5000776;28;20038;-78
2023/08/17 01:07:34;;;;;;;;;;;;;;;18.19;100.00;101931.97;5020559;28;19921;-74
2023/08/17 01:09:59;;;;;;;;;;;;;;;18.13;100.00;101922.53;5018381;28;19943;-85
2023/08/17 01:12:26;;;;;;;;;;;;;;;18.18;100.00;101928.38;5000164;28;20320;-75
2023/08/17 01:15:00;;;;;;;;;;;;;;;18.09;100.00;101929.25;5000195;28;19964;-77
2023/08/17 01:17:46;;;;;;;;;;;;;;;17.92;100.00;101923.47;5013682;28;20391;-77
2023/08/17 01:20:13;;;;;;;;;;;;;;;17.98;100.00;101919.34;4988868;28;19928;-75
2023/08/17 01:22:39;;;;;;;;;;;;;;;17.91;100.00;101924.47;4992070;28;20363;-77
2023/08/17 01:25:04;;;;;;;;;;;;;;;17.86;100.00;101924.06;5003505;28;20359;-78
2023/08/17 01:27:36;;;;;;;;;;;;;;;17.83;100.00;101921.63;5013314;28;19990;-74
2023/08/17 01:30:01;;;;;;;;;;;;;;;17.77;100.00;101925.75;5010470;28;19925;-75
2023/08/17 01:32:30;;;;;;;;;;;;;;;17.79;100.00;101917.47;4995830;28;19932;-75
2023/08/17 01:35:01;;;;;;;;;;;;;;;17.60;100.00;101916.44;5013251;28;20015;-74
2023/08/17 01:37:28;;;;;;;;;;;;;;;17.50;100.00;101916.38;5012753;28;19920;-77
2023/08/17 01:39:54;;;;;;;;;;;;;;;17.57;100.00;101914.00;5008744;28;19925;-75
2023/08/17 01:42:19;;;;;;;;;;;;;;;17.60;100.00;101919.16;5007179;28;19925;-78
2023/08/17 01:44:44;;;;;;;;;;;;;;;17.50;100.00;101919.09;5015190;28;19921;-78
2023/08/17 01:47:11;;;;;;;;;;;;;;;17.46;100.00;101906.84;5010557;28;19978;-81
2023/08/17 01:49:36;;;;;;;;;;;;;;;17.49;100.00;101901.09;5022046;28;20448;-80
2023/08/17 01:52:02;;;;;;;;;;;;;;;17.54;100.00;101919.72;5009380;28;20237;-76
2023/08/17 01:54:27;;;;;;;;;;;;;;;17.53;100.00;101907.97;4995643;28;19941;-77
2023/08/17 01:56:52;;;;;;;;;;;;;;;17.61;100.00;101915.41;5017617;28;20291;-77
2023/08/17 01:59:18;;;;;;;;;;;;;;;17.54;100.00;101917.84;5009049;28;20681;-77
2023/08/17 02:01:43;;;;;;;;;;;;;;;17.61;100.00;101914.56;5010585;28;20546;-77
2023/08/17 02:04:08;;;;;;;;;;;;;;;17.66;100.00;101918.56;5025346;28;20561;-75
2023/08/17 02:06:33;;;;;;;;;;;;;;;17.66;100.00;101917.72;5025159;28;19925;-77
2023/08/17 02:08:59;;;;;;;;;;;;;;;17.57;100.00;101921.28;4998359;28;20441;-77
2023/08/17 02:11:24;;;;;;;;;;;;;;;17.51;100.00;101909.97;4995860;28;19921;-77
2023/08/17 02:13:49;;;;;;;;;;;;;;;17.41;100.00;101919.09;5005546;28;19964;-77
2023/08/17 02:16:14;;;;;;;;;;;;;;;17.44;100.00;101919.69;5027150;28;20015;-76
2023/08/17 02:18:40;;;;;;;;;;;;;;;17.35;100.00;101921.34;5009527;28;19917;-77
2023/08/17 02:21:05;;;;;;;;;;;;;;;17.38;100.00;101928.38;5015404;28;19984;-76
2023/08/17 02:23:30;;;;;;;;;;;;;;;17.35;100.00;101925.94;5012128;28;19982;-77
2023/08/17 02:25:55;;;;;;;;;;;;;;;17.38;100.00;101926.50;5012781;28;19921;-75
2023/08/17 02:28:20;;;;;;;;;;;;;;;17.42;100.00;101931.66;5014790;28;19921;-77
2023/08/17 02:30:46;;;;;;;;;;;;;;;17.46;100.00;101931.28;5014977;28;20051;-76
2023/08/17 02:33:11;;;;;;;;;;;;;;;17.51;100.00;101926.25;4999565;28;19925;-77
2023/08/17 02:35:37;;;;;;;;;;;;;;;17.48;100.00;101915.66;5012762;28;19986;-76
2023/08/17 02:38:02;;;;;;;;;;;;;;;17.52;100.00;101916.28;5013457;28;20031;-79
2023/08/17 02:40:27;;;;;;;;;;;;;;;17.52;100.00;101908.13;5012425;28;20256;-77
2023/08/17 02:42:52;;;;;;;;;;;;;;;17.57;100.00;101913.13;5016991;28;20364;-78
2023/08/17 02:45:17;;;;;;;;;;;;;;;17.52;100.00;101903.53;5006886;28;19917;-78
2023/08/17 02:47:43;;;;;;;;;;;;;;;17.60;100.00;101902.88;5012586;28;19932;-78
2023/08/17 02:50:08;;;;;;;;;;;;;;;17.61;100.00;101898.28;5008937;28;19996;-78
2023/08/17 02:52:33;;;;;;;;;;;;;;;17.48;100.00;101899.38;5006504;28;19925;-77
2023/08/17 02:54:58;;;;;;;;;;;;;;;17.48;100.00;101893.94;4999524;28;19916;-77
2023/08/17 02:57:24;;;;;;;;;;;;;;;17.39;100.00;101889.38;5027965;28;19947;-76
2023/08/17 02:59:49;;;;;;;;;;;;;;;17.39;100.00;101883.94;5013061;28;19979;-82
2023/08/17 03:02:14;;;;;;;;;;;;;;;17.38;100.00;101893.94;5025643;28;19982;-87
2023/08/17 03:04:40;;;;;;;;;;;;;;;17.47;100.00;101894.09;5016363;28;20004;-77
2023/08/17 03:07:06;;;;;;;;;;;;;;;17.28;100.00;101890.34;5016400;28;19925;-80
2023/08/17 03:09:31;;;;;;;;;;;;;;;17.42;100.00;101897.25;5010660;28;19932;-74
2023/08/17 03:11:56;;;;;;;;;;;;;;;17.38;100.00;101898.50;5017576;28;19967;-78
2023/08/17 03:14:21;;;;;;;;;;;;;;;17.35;100.00;101899.63;5011549;28;20016;-76
2023/08/17 03:16:46;;;;;;;;;;;;;;;17.37;100.00;101894.94;5035892;28;19921;-76
2023/08/17 03:19:12;;;;;;;;;;;;;;;17.36;100.00;101895.09;5011335;28;19982;-78
2023/08/17 03:21:37;;;;;;;;;;;;;;;17.31;100.00;101894.63;5023228;28;19964;-79
2023/08/17 03:24:03;;;;;;;;;;;;;;;17.22;100.00;101893.59;5010360;28;20065;-77
2023/08/17 03:26:28;;;;;;;;;;;;;;;17.23;100.00;101892.63;5008872;28;20031;-77
2023/08/17 03:28:53;;;;;;;;;;;;;;;17.23;100.00;101893.47;5023055;28;19925;-80
2023/08/17 03:31:20;;;;;;;;;;;;;;;17.19;100.00;101886.63;5009642;28;20000;-81
2023/08/17 03:33:45;;;;;;;;;;;;;;;17.23;100.00;101895.31;5011749;28;19921;-79
2023/08/17 03:36:10;;;;;;;;;;;;;;;17.27;100.00;101901.31;4997567;28;19931;-79
2023/08/17 03:38:37;;;;;;;;;;;;;;;17.20;100.00;101901.03;5005379;28;20352;-80
2023/08/17 03:41:04;;;;;;;;;;;;;;;17.28;100.00;101900.34;5014458;28;19936;-77
2023/08/17 03:43:29;;;;;;;;;;;;;;;17.24;100.00;101900.59;5016859;28;19960;-79
2023/08/17 03:45:54;;;;;;;;;;;;;;;17.28;100.00;101898.50;5019717;28;19921;-79
2023/08/17 03:48:21;;;;;;;;;;;;;;;17.17;100.00;101893.16;5004344;28;19967;-79
2023/08/17 03:50:46;;;;;;;;;;;;;;;17.07;100.00;101894.00;5020207;28;20753;-78
2023/08/17 03:53:11;;;;;;;;;;;;;;;17.07;100.00;101895.84;5002290;28;20137;-79
2023/08/17 03:55:37;;;;;;;;;;;;;;;17.16;100.00;101892.31;5032106;28;19921;-78
2023/08/17 03:58:02;;;;;;;;;;;;;;;17.12;100.00;101890.00;5021430;28;19987;-78
2023/08/17 04:00:27;;;;;;;;;;;;;;;17.14;100.00;101891.59;5024330;28;20381;-77
2023/08/17 04:02:52;;;;;;;;;;;;;;;17.13;100.00;101891.72;5032344;28;19940;-78
2023/08/17 04:05:17;;;;;;;;;;;;;;;17.09;100.00;101891.97;5022404;28;19952;-78
2023/08/17 04:07:43;;;;;;;;;;;;;;;16.92;100.00;101900.72;5016549;28;20012;-78
2023/08/17 04:10:08;;;;;;;;;;;;;;;16.93;100.00;101900.63;5029935;28;20043;-79
2023/08/17 04:12:33;;;;;;;;;;;;;;;16.89;100.00;101896.44;5027019;28;19925;-79
2023/08/17 04:14:59;;;;;;;;;;;;;;;16.79;100.00;101901.81;5021104;28;19963;-78
2023/08/17 04:17:24;;;;;;;;;;;;;;;16.61;100.00;101908.84;5012528;28;20417;-79
2023/08/17 04:19:50;;;;;;;;;;;;;;;16.60;100.00;101908.00;5024998;28;20348;-79
2023/08/17 04:22:15;;;;;;;;;;;;;;;16.62;100.00;101916.84;5000270;28;19921;-78
2023/08/17 04:24:40;;;;;;;;;;;;;;;16.44;100.00;101899.44;5001282;28;19967;-77
2023/08/17 04:27:05;;;;;;;;;;;;;;;16.53;100.00;101911.38;5017308;28;19939;-79
2023/08/17 04:29:31;;;;;;;;;;;;;;;16.48;100.00;101909.91;5010119;28;19925;-79
2023/08/17 04:31:56;;;;;;;;;;;;;;;16.49;100.00;101916.19;5014360;28;19986;-79
2023/08/17 04:34:22;;;;;;;;;;;;;;;16.52;100.00;101920.50;5013478;28;19917;-78
2023/08/17 04:36:47;;;;;;;;;;;;;;;16.45;100.00;101920.16;5014159;28;19968;-78
2023/08/17 04:39:12;;;;;;;;;;;;;;;16.40;100.00;101925.97;5016075;28;20210;-78
2023/08/17 04:41:37;;;;;;;;;;;;;;;16.42;100.00;101923.16;5023849;28;20039;-77
2023/08/17 04:44:03;;;;;;;;;;;;;;;16.42;100.00;101931.28;5018780;28;19921;-78
2023/08/17 04:46:28;;;;;;;;;;;;;;;16.46;100.00;101935.41;5021697;28;20394;-77
2023/08/17 04:48:53;;;;;;;;;;;;;;;16.53;100.00;101936.63;5019798;28;19999;-78
2023/08/17 04:51:18;;;;;;;;;;;;;;;16.49;100.00;101930.59;5018634;28;20014;-78
2023/08/17 04:53:43;;;;;;;;;;;;;;;16.57;100.00;101929.06;5029999;28;19921;-79
2023/08/17 04:56:09;;;;;;;;;;;;;;;16.66;100.00;101936.41;5014935;28;19944;-77
2023/08/17 04:58:34;;;;;;;;;;;;;;;16.75;100.00;101930.22;5017155;28;19968;-78
2023/08/17 05:00:59;;;;;;;;;;;;;;;16.82;100.00;101925.09;5002874;28;19988;-77
2023/08/17 05:03:24;;;;;;;;;;;;;;;16.86;100.00;101928.38;5028845;28;19921;-79
2023/08/17 05:05:51;;;;;;;;;;;;;;;16.93;100.00;101926.88;5014821;28;20423;-79
2023/08/17 05:08:17;;;;;;;;;;;;;;;16.96;100.00;101923.03;5027355;28;20036;-79
2023/08/17 05:10:42;;;;;;;;;;;;;;;17.03;100.00;101918.81;5029724;28;19927;-78
2023/08/17 05:13:07;;;;;;;;;;;;;;;17.01;100.00;101907.22;5019031;28;19929;-79
2023/08/17 05:15:32;;;;;;;;;;;;;;;17.00;100.00;101913.66;5001035;28;19932;-79
2023/08/17 05:17:57;;;;;;;;;;;;;;;17.12;100.00;101911.69;5015247;28;19917;-78
2023/08/17 05:20:23;;;;;;;;;;;;;;;17.23;100.00;101912.44;5013730;28;19921;-79
2023/08/17 05:22:48;;;;;;;;;;;;;;;17.29;100.00;101912.91;5023876;28;20498;-79
2023/08/17 05:25:13;;;;;;;;;;;;;;;17.35;100.00;101910.50;5010743;28;19927;-80
2023/08/17 05:27:38;;;;;;;;;;;;;;;17.41;100.00;101913.66;5001098;28;21935;-80
2023/08/17 05:30:04;;;;;;;;;;;;;;;17.45;100.00;101915.97;5001020;28;20398;-77
2023/08/17 05:32:29;;;;;;;;;;;;;;;17.50;100.00;101912.84;5015002;28;20484;-79
2023/08/17 05:34:54;;;;;;;;;;;;;;;17.64;100.00;101925.16;5018820;28;19971;-78
2023/08/17 05:37:20;;;;;;;;;;;;;;;17.69;100.00;101909.31;5013113;28;19921;-78
2023/08/17 05:39:45;;;;;;;;;;;;;;;17.61;100.00;101914.56;5009027;28;19921;-78
2023/08/17 05:42:10;;;;;;;;;;;;;;;17.59;100.00;101909.28;5002237;28;19927;-81
2023/08/17 05:44:35;;;;;;;;;;;;;;;17.69;100.00;101909.31;5015287;28;19924;-80
2023/08/17 05:47:00;;;;;;;;;;;;;;;17.78;100.00;101904.88;5017459;28;19967;-78
2023/08/17 05:49:26;;;;;;;;;;;;;;;17.82;100.00;101909.03;5015267;28;19921;-72
2023/08/17 05:51:51;;;;;;;;;;;;;;;17.89;100.00;101912.88;5015407;28;20047;-76
2023/08/17 05:54:16;;;;;;;;;;;;;;;18.04;100.00;101905.19;5012914;28;20024;-77
2023/08/17 05:56:46;;;;;;;;;;;;;;;18.11;100.00;101913.66;5018609;28;20160;-78
2023/08/17 05:59:11;;;;;;;;;;;;;;;18.16;100.00;101914.06;5015423;28;20283;-75
2023/08/17 06:01:36;;;;;;;;;;;;;;;18.16;100.00;101919.50;5005209;28;20007;-74
2023/08/17 06:04:01;;;;;;;;;;;;;;;18.28;100.00;101915.66;5012970;28;19925;-79
2023/08/17 06:06:27;;;;;;;;;;;;;;;18.18;100.00;101924.81;5014844;28;19982;-76
2023/08/17 06:08:52;;;;;;;;;;;;;;;18.18;100.00;101932.97;4994619;28;20211;-78
2023/08/17 06:11:17;;;;;;;;;;;;;;;18.08;100.00;101938.41;5011147;28;19925;-76
2023/08/17 06:13:42;;;;;;;;;;;;;;;18.11;100.00;101935.41;5013769;28;19917;-76
2023/08/17 06:16:08;;;;;;;;;;;;;;;18.05;100.00;101942.25;5029445;28;19921;-80
2023/08/17 06:18:34;;;;;;;;;;;;;;;17.96;100.00;101938.50;5014444;28;19921;-78
2023/08/17 06:21:01;;;;;;;;;;;;;;;17.99;100.00;101940.13;4995323;28;20312;-77
2023/08/17 06:23:26;;;;;;;;;;;;;;;18.02;100.00;101938.97;5012051;28;19921;-78
2023/08/17 06:25:51;;;;;;;;;;;;;;;18.10;100.00;101939.97;5013750;28;19913;-79
2023/08/17 06:28:16;;;;;;;;;;;;;;;18.13;100.00;101942.41;5007896;28;19921;-79
2023/08/17 06:30:41;;;;;;;;;;;;;;;18.22;100.00;101945.28;5013271;28;19921;-80
2023/08/17 06:33:07;;;;;;;;;;;;;;;18.21;100.00;101944.41;5002728;28;20300;-80
2023/08/17 06:35:32;;;;;;;;;;;;;;;18.28;100.00;101942.84;5012902;28;19925;-79
2023/08/17 06:37:57;;;;;;;;;;;;;;;18.29;100.00;101941.84;5013581;28;19922;-79
2023/08/17 06:40:23;;;;;;;;;;;;;;;18.36;100.00;101935.81;5015820;28;20008;-79
2023/08/17 06:42:48;;;;;;;;;;;;;;;18.46;100.00;101938.53;5014901;28;19921;-79
2023/08/17 06:45:18;;;;;;;;;;;;;;;18.46;100.00;101938.53;5011930;28;19971;-79
2023/08/17 06:47:45;;;;;;;;;;;;;;;18.55;100.00;101943.09;5023444;28;19917;-79
2023/08/17 06:50:10;;;;;;;;;;;;;;;18.53;100.00;101945.13;5011564;28;19924;-78
2023/08/17 06:52:35;;;;;;;;;;;;;;;18.67;100.00;101944.66;5005012;28;19918;-80
2023/08/17 06:55:00;;;;;;;;;;;;;;;18.78;100.00;101938.19;5022300;28;19968;-79
2023/08/17 06:57:25;;;;;;;;;;;;;;;19.05;100.00;101935.72;5011033;28;20458;-80
2023/08/17 06:59:51;;;;;;;;;;;;;;;19.08;100.00;101935.38;5013024;28;19921;-78
2023/08/17 07:02:16;;;;;;;;;;;;;;;19.12;100.00;101940.41;5006406;28;19928;-80
2023/08/17 07:04:41;;;;;;;;;;;;;;;18.97;100.00;101940.03;4999514;28;19991;-80
2023/08/17 07:07:06;;;;;;;;;;;;;;;18.82;100.00;101939.59;5006087;28;19960;-78
2023/08/17 07:09:31;;;;;;;;;;;;;;;18.90;100.00;101941.59;5004330;28;20076;-78
2023/08/17 07:11:57;;;;;;;;;;;;;;;18.89;100.00;101945.31;5010680;28;19927;-77
2023/08/17 07:14:22;;;;;;;;;;;;;;;18.98;100.00;101943.59;5012155;28;20032;-78
2023/08/17 07:16:48;;;;;;;;;;;;;;;19.10;100.00;101949.72;5011184;28;20415;-77
2023/08/17 07:19:13;;;;;;;;;;;;;;;19.08;100.00;101949.00;5013456;28;19956;-75
2023/08/17 07:21:38;;;;;;;;;;;;;;;19.09;100.00;101946.16;5012013;28;20355;-79
2023/08/17 07:24:13;;;;;;;;;;;;;;;19.02;100.00;101943.16;5012487;28;19981;-78
2023/08/17 07:26:39;;;;;;;;;;;;;;;19.08;100.00;101947.16;4996386;28;20007;-79
2023/08/17 07:29:04;;;;;;;;;;;;;;;19.17;100.00;101946.25;5012243;28;20375;-79
2023/08/17 07:31:29;;;;;;;;;;;;;;;19.25;100.00;101950.06;5012349;28;19925;-76
2023/08/17 07:33:54;;;;;;;;;;;;;;;19.07;100.00;101952.75;5021462;28;19963;-79
2023/08/17 07:36:19;;;;;;;;;;;;;;;19.34;100.00;101949.19;5013297;28;20007;-75
2023/08/17 07:38:45;;;;;;;;;;;;;;;19.42;100.00;101942.97;5025656;28;20006;-79
2023/08/17 07:41:10;;;;;;;;;;;;;;;19.30;100.00;101947.78;5006452;28;19921;-79
2023/08/17 07:43:35;;;;;;;;;;;;;;;19.38;100.00;101947.00;5004096;28;20124;-79
2023/08/17 07:46:00;;;;;;;;;;;;;;;19.56;100.00;101947.94;5009873;28;20543;-79
2023/08/17 07:48:26;;;;;;;;;;;;;;;19.53;100.00;101948.25;5003585;28;20359;-80
2023/08/17 07:50:51;;;;;;;;;;;;;;;19.48;100.00;101945.94;5015374;28;20287;-79
2023/08/17 07:53:17;;;;;;;;;;;;;;;19.60;100.00;101954.78;5002812;28;20015;-76
2023/08/17 07:55:42;;;;;;;;;;;;;;;19.53;100.00;101956.41;5009796;28;19921;-78
2023/08/17 07:58:08;;;;;;;;;;;;;;;19.40;100.00;101942.28;5011588;28;21471;-78
2023/08/17 08:00:33;;;;;;;;;;;;;;;19.45;100.00;101943.56;5004618;28;20402;-78
2023/08/17 08:02:58;;;;;;;;;;;;;;;19.38;100.00;101945.16;5010205;28;19921;-74
2023/08/17 08:05:23;;;;;;;;;;;;;;;19.33;100.00;101940.16;5016118;28;19944;-76
2023/08/17 08:07:48;;;;;;;;;;;;;;;19.14;100.00;101945.69;5003926;28;19928;-77
2023/08/17 08:10:14;;;;;;;;;;;;;;;18.99;100.00;101954.34;5012011;28;19968;-78
2023/08/17 08:12:39;;;;;;;;;;;;;;;18.94;100.00;101953.91;5006784;28;20043;-76
2023/08/17 08:15:05;;;;;;;;;;;;;;;18.89;100.00;101957.06;5011594;28;19917;-77
2023/08/17 08:17:30;;;;;;;;;;;;;;;18.69;100.00;101963.53;5004273;28;19967;-78
2023/08/17 08:19:55;;;;;;;;;;;;;;;18.82;100.00;101969.53;5003175;28;19968;-75
2023/08/17 08:22:20;;;;;;;;;;;;;;;18.91;100.00;101965.06;4990304;28;20387;-78
2023/08/17 08:24:45;;;;;;;;;;;;;;;18.74;100.00;101969.41;5007185;28;19932;-76
2023/08/17 08:27:11;;;;;;;;;;;;;;;18.97;100.00;101961.78;5016860;28;20001;-78
2023/08/17 08:29:36;;;;;;;;;;;;;;;18.96;100.00;101953.75;5014568;28;19960;-76
2023/08/17 08:32:02;;;;;;;;;;;;;;;18.92;100.00;101960.50;5015119;28;20008;-79
2023/08/17 08:34:28;;;;;;;;;;;;;;;18.95;100.00;101961.09;5017993;28;19924;-78
2023/08/17 08:36:53;;;;;;;;;;;;;;;18.96;100.00;101956.47;5001010;28;20261;-73
2023/08/17 08:39:18;;;;;;;;;;;;;;;18.90;100.00;101952.47;5030205;28;20011;-75
2023/08/17 08:41:43;;;;;;;;;;;;;;;19.00;100.00;101961.50;5001976;28;19921;-77
2023/08/17 08:44:08;;;;;;;;;;;;;;;18.89;100.00;101959.78;5027717;28;19960;-80
2023/08/17 08:46:34;;;;;;;;;;;;;;;18.84;100.00;101964.81;5016828;28;20004;-76
2023/08/17 08:48:59;;;;;;;;;;;;;;;18.84;100.00;101961.22;5015167;28;20028;-77
2023/08/17 08:51:30;;;;;;;;;;;;;;;18.82;100.00;101965.94;4999851;28;19978;-78
2023/08/17 08:54:05;;;;;;;;;;;;;;;18.77;100.00;101970.97;5025426;28;20415;-79
2023/08/17 08:56:34;;;;;;;;;;;;;;;18.87;100.00;101961.78;5017998;28;19928;-79
2023/08/17 08:59:01;;;;;;;;;;;;;;;18.92;100.00;101960.50;4997792;28;19967;-74
2023/08/17 09:01:26;;;;;;;;;;;;;;;19.01;100.00;101957.78;5016458;28;20145;-72
2023/08/17 09:03:52;;;;;;;;;;;;;;;19.08;100.00;101947.16;5018105;28;19925;-76
2023/08/17 09:06:17;;;;;;;;;;;;;;;18.97;100.00;101952.75;5016188;28;19956;-75
2023/08/17 09:08:42;;;;;;;;;;;;;;;18.92;100.00;101947.75;5008366;28;20412;-76
2023/08/17 09:11:08;;;;;;;;;;;;;;;18.99;100.00;101957.06;5014219;28;19993;-75
2023/08/17 09:13:33;;;;;;;;;;;;;;;18.93;100.00;101949.44;5015100;28;19921;-76
2023/08/17 09:15:58;;;;;;;;;;;;;;;18.96;100.00;101957.34;5014744;28;19952;-76
2023/08/17 09:18:23;;;;;;;;;;;;;;;18.98;100.00;101951.75;5022517;28;20019;-75
2023/08/17 09:20:51;;;;;;;;;;;;;;;18.95;100.00;101952.91;5016476;28;19921;-75
2023/08/17 09:23:17;;;;;;;;;;;;;;;18.86;100.00;101951.91;5003972;28;20028;-74
2023/08/17 09:25:43;;;;;;;;;;;;;;;18.88;100.00;101946.31;5024675;28;20146;-77
2023/08/17 09:28:18;;;;;;;;;;;;;;;18.85;100.00;101946.59;5004076;28;19925;-75
2023/08/17 09:30:48;;;;;;;;;;;;;;;18.88;100.00;101944.47;5002805;28;19917;-75
2023/08/17 09:33:14;;;;;;;;;;;;;;;18.89;100.00;101946.19;5017704;28;21418;-74
2023/08/17 09:35:41;;;;;;;;;;;;;;;18.91;100.00;101946.03;5016867;28;19939;-77
2023/08/17 09:38:06;;;;;;;;;;;;;;;18.98;100.00;101944.47;5018950;28;20386;-78
2023/08/17 09:40:31;;;;;;;;;;;;;;;19.07;100.00;101940.00;5008080;28;19925;-78
2023/08/17 09:42:56;;;;;;;;;;;;;;;19.22;100.00;101934.03;5000046;28;19971;-76
2023/08/17 09:45:21;;;;;;;;;;;;;;;19.06;100.00;101935.56;5014638;28;19967;-78
2023/08/17 09:47:47;;;;;;;;;;;;;;;19.14;100.00;101940.25;5017746;28;19924;-77
2023/08/17 09:50:12;;;;;;;;;;;;;;;19.17;100.00;101935.38;5013751;28;20252;-76
2023/08/17 09:52:38;;;;;;;;;;;;;;;19.26;100.00;101932.75;5016940;28;20007;-78
2023/08/17 09:55:03;;;;;;;;;;;;;;;19.28;100.00;101933.44;5019197;28;19917;-78
2023/08/17 09:57:29;;;;;;;;;;;;;;;19.27;100.00;101924.44;5015248;28;19952;-77
2023/08/17 09:59:54;;;;;;;;;;;;;;;19.32;100.00;101929.41;5026642;28;19956;-77
2023/08/17 10:02:20;;;;;;;;;;;;;;;19.32;100.00;101921.25;5021525;28;20047;-73
2023/08/17 10:04:48;;;;;;;;;;;;;;;19.19;100.00;101927.03;5011954;28;19925;-73
2023/08/17 10:07:13;;;;;;;;;;;;;;;19.38;100.00;101920.66;4996421;28;20015;-73
2023/08/17 10:09:39;;;;;;;;;;;;;;;19.38;100.00;101931.53;5010894;28;19927;-74
2023/08/17 10:12:06;;;;;;;;;;;;;;;19.41;100.00;101933.09;5010915;28;19925;-74
2023/08/17 10:14:33;;;;;;;;;;;;;;;19.31;100.00;101931.31;5013405;28;19928;-74
2023/08/17 10:17:01;;;;;;;;;;;;;;;19.31;100.00;101927.69;5007420;28;19917;-74
2023/08/17 10:19:32;;;;;;;;;;;;;;;19.36;100.00;101921.78;5011929;28;19921;-74
2023/08/17 10:22:01;;;;;;;;;;;;;;;19.41;100.00;101917.63;5018801;28;19991;-75
2023/08/17 10:24:26;;;;;;;;;;;;;;;19.47;100.00;101911.56;5010672;28;19933;-74
2023/08/17 10:26:51;;;;;;;;;;;;;;;19.51;100.00;101913.97;5015766;28;20439;-75
2023/08/17 10:29:16;;;;;;;;;;;;;;;19.61;100.00;101910.19;5012077;28;20426;-71
2023/08/17 10:31:44;;;;;;;;;;;;;;;19.53;100.00;101907.38;5012126;28;19921;-74
2023/08/17 10:34:09;;;;;;;;;;;;;;;19.37;100.00;101910.78;4996513;28;19928;-75
2023/08/17 10:36:34;;;;;;;;;;;;;;;19.44;100.00;101909.16;5016144;28;19921;-74
2023/08/17 10:39:18;;;;;;;;;;;;;;;19.61;100.00;101909.34;5006168;28;19932;-74
2023/08/17 10:41:50;;;;;;;;;;;;;;;19.72;100.00;101902.81;5009708;28;20377;-74
2023/08/17 10:44:17;;;;;;;;;;;;;;;19.61;100.00;101912.06;5014005;28;19929;-72
2023/08/17 10:46:46;;;;;;;;;;;;;;;19.77;100.00;101905.94;4997403;28;19927;-74
2023/08/17 10:49:24;;;;;;;;;;;;;;;19.93;100.00;101911.56;4998565;28;19925;-73
2023/08/17 10:52:02;;;;;;;;;;;;;;;19.85;100.00;101895.13;4996188;28;20051;-74
2023/08/17 10:54:36;;;;;;;;;;;;;;;19.96;100.00;101904.09;5009564;28;19937;-75
2023/08/17 10:57:21;;;;;;;;;;;;;;;20.16;100.00;101902.91;5014030;28;19940;-73
2023/08/17 10:59:46;;;;;;;;;;;;;;;20.33;100.00;101905.78;5011860;28;19928;-74
2023/08/17 11:02:11;;;;;;;;;;;;;;;20.55;100.00;101904.41;5014438;28;20374;-74
2023/08/17 11:04:36;;;;;;;;;;;;;;;20.63;100.00;101907.19;5011836;28;19972;-75
2023/08/17 11:07:02;;;;;;;;;;;;;;;20.56;100.00;101911.56;5012358;28;19967;-74
2023/08/17 11:09:27;;;;;;;;;;;;;;;20.61;100.00;101906.50;5013384;28;19968;-75
2023/08/17 11:11:53;;;;;;;;;;;;;;;20.77;100.00;101907.66;5013140;28;19917;-74
2023/08/17 11:14:19;;;;;;;;;;;;;;;20.69;100.00;101905.69;5011677;28;20169;-75
2023/08/17 11:16:46;;;;;;;;;;;;;;;20.59;100.00;101903.06;5013094;28;20016;-75
2023/08/17 11:19:11;;;;;;;;;;;;;;;20.56;100.00;101908.84;5026203;28;19975;-75
2023/08/17 11:21:36;;;;;;;;;;;;;;;20.57;100.00;101910.56;5010832;28;20023;-75
2023/08/17 11:24:02;;;;;;;;;;;;;;;20.66;100.00;101904.16;5009933;28;19929;-75
2023/08/17 11:26:27;;;;;;;;;;;;;;;20.50;100.00;101904.91;5011073;28;20167;-75
2023/08/17 11:28:53;;;;;;;;;;;;;;;20.55;100.00;101911.75;5020007;28;19968;-75
2023/08/17 11:31:18;;;;;;;;;;;;;;;20.71;100.00;101906.38;5012828;28;19921;-75
2023/08/17 11:33:44;;;;;;;;;;;;;;;20.69;100.00;101911.16;5011017;28;20055;-75
2023/08/17 11:36:10;;;;;;;;;;;;;;;20.62;100.00;101918.28;5012169;28;19920;-75
2023/08/17 11:38:36;;;;;;;;;;;;;;;20.73;100.00;101917.16;5012713;28;19944;-75
2023/08/17 11:41:02;;;;;;;;;;;;;;;20.53;100.00;101918.22;4995018;28;20597;-76
2023/08/17 11:43:27;;;;;;;;;;;;;;;20.56;100.00;101914.31;5012805;28;19932;-76
2023/08/17 11:45:53;;;;;;;;;;;;;;;20.52;100.00;101911.03;4994010;28;19921;-76
2023/08/17 11:48:18;;;;;;;;;;;;;;;20.65;100.00;101907.91;5016173;28;19964;-75
2023/08/17 11:50:44;;;;;;;;;;;;;;;20.68;100.00;101910.31;5005203;28;20022;-77
2023/08/17 11:53:09;;;;;;;;;;;;;;;20.78;100.00;101912.13;5014253;28;19968;-78
2023/08/17 11:55:34;;;;;;;;;;;;;;;20.82;100.00;101897.97;4998214;28;19964;-78
2023/08/17 11:58:01;;;;;;;;;;;;;;;20.56;100.00;101906.13;5017104;28;20002;-78
2023/08/17 12:00:26;;;;;;;;;;;;;;;20.38;100.00;101911.63;4995771;28;19925;-79
2023/08/17 12:02:52;;;;;;;;;;;;;;;20.75;100.00;101906.94;5020798;28;19929;-77
2023/08/17 12:05:23;;;;;;;;;;;;;;;20.86;100.00;101898.50;5003536;28;20012;-78
2023/08/17 12:07:48;;;;;;;;;;;;;;;20.74;100.00;101902.50;5013174;28;20430;-79
2023/08/17 12:10:13;;;;;;;;;;;;;;;20.73;100.00;101904.34;5012758;28;19921;-78
2023/08/17 12:12:40;;;;;;;;;;;;;;;20.79;100.00;101911.94;5003377;28;20458;-79
2023/08/17 12:15:05;;;;;;;;;;;;;;;20.92;100.00;101910.66;5015346;28;20379;-78
2023/08/17 12:17:30;;;;;;;;;;;;;;;20.92;100.00;101911.50;5008268;28;20037;-79
2023/08/17 12:19:56;;;;;;;;;;;;;;;20.75;100.00;101909.66;5009193;28;19921;-80
2023/08/17 12:22:23;;;;;;;;;;;;;;;20.76;100.00;101912.25;4998484;28;19917;-78